Latest Weather Observations for Naracoorte

IDS60801

Issued at 6:05 am CST Tuesday 2 September 2014 (issued every 30 minutes, with the page automatically refreshed every 10 minutes)

About weather observations | Map of weather stations | Latest weather observations for SA | Other Formats
Station Details ID: 026099 Name: NARACOORTE AERODROME Lat: -36.98 Lon: 140.73 Height: 49.72 m
Data from the previous 72 hours. | See also: Recent months at Naracoorte
Date/Time
CST
Temp
°C
App
Temp
°C
Dew
Point
Rel
Hum
%
Delta-T
°C
Wind Press
QNH
hPa
Press
MSL
hPa
Rain
since 9 am
mm
Dir
 
Spd
km/h
Gust
km/h
Spd
kts
Gust
kts
02/06:00am 2.6 -0.4 2.3 98 0.1 S 7 7 4 4 1020.7 1020.7 0.8
02/05:30am 3.9 1.4 3.5 97 0.2 SSE 6 7 3 4 1020.0 1020.0 0.8
02/05:00am 3.8 1.2 3.4 97 0.2 SSE 6 7 3 4 1019.6 1019.6 0.8
02/04:30am 4.5 2.1 4.1 97 0.2 SSE 6 9 3 5 1019.1 1019.1 0.8
02/04:00am 4.0 1.8 3.6 97 0.2 SSE 4 7 2 4 1018.6 1018.6 0.8
02/03:30am 4.2 1.1 3.8 97 0.2 WNW 9 11 5 6 1018.4 1018.4 0.8
02/03:00am 4.0 0.8 3.3 95 0.3 W 9 13 5 7 1018.2 1018.2 0.8
02/02:30am 4.9 2.5 4.2 95 0.3 WSW 6 11 3 6 1017.9 1017.9 0.8
02/02:00am 5.8 2.2 4.9 94 0.4 WSW 13 15 7 8 1017.9 1017.9 0.8
02/01:30am 6.6 4.0 5.9 95 0.3 WSW 9 15 5 8 1017.8 1017.8 0.8
02/01:00am 6.0 3.8 5.3 95 0.3 SW 6 9 3 5 1017.5 1017.5 0.8
02/12:30am 6.0 5.0 5.4 96 0.3 CALM 0 0 0 0 1017.2 1017.2 0.8
02/12:00am 5.0 3.4 4.4 96 0.3 WNW 2 7 1 4 1017.2 1017.2 0.8
 
Date/Time
CST
Temp
°C
App
Temp
°C
Dew
Point
Rel
Hum
%
Delta-T
°C
Wind Press
QNH
hPa
Press
MSL
hPa
Rain
since 9 am
mm
Dir
 
Spd
km/h
Gust
km/h
Spd
kts
Gust
kts
01/11:30pm 4.1 1.3 3.4 95 0.3 SW 7 9 4 5 1016.9 1016.9 0.8
01/11:00pm 5.1 3.1 4.4 95 0.3 WNW 4 7 2 4 1016.6 1016.7 0.8
01/10:30pm 4.9 2.3 4.0 94 0.4 WNW 7 9 4 5 1016.5 1016.6 0.8
01/10:00pm 3.7 0.1 2.8 94 0.4 W 11 13 6 7 1016.3 1016.4 0.8
01/09:30pm 4.2 2.0 3.3 94 0.4 WSW 4 9 2 5 1016.1 1016.2 0.8
01/09:00pm 3.9 2.4 2.9 93 0.4 CALM 0 0 0 0 1015.7 1015.8 0.8
01/08:30pm 5.9 4.7 4.7 92 0.5 CALM 0 0 0 0 1015.5 1015.6 0.8
01/08:00pm 5.8 4.5 4.3 90 0.6 CALM 0 0 0 0 1015.3 1015.4 0.8
01/07:30pm 6.1 5.0 4.9 92 0.5 CALM 0 0 0 0 1014.9 1015.0 0.8
01/07:00pm 5.6 3.2 4.1 90 0.6 SSW 6 9 3 5 1014.5 1014.6 0.8
01/06:30pm 5.9 2.1 3.9 87 0.8 SW 13 13 7 7 1014.0 1014.1 0.8
01/06:00pm 7.9 3.6 5.4 84 1.1 SW 17 19 9 10 1013.6 1013.7 0.8
01/05:30pm 10.2 5.6 6.7 79 1.6 SW 20 26 11 14 1013.2 1013.3 0.8
01/05:00pm 11.5 8.3 8.5 82 1.5 SW 15 20 8 11 1012.7 1012.7 0.8
01/04:30pm 12.5 8.4 8.6 77 1.9 SW 20 26 11 14 1012.3 1012.3 0.8
01/04:00pm 12.8 6.9 7.7 71 2.5 SW 28 33 15 18 1012.0 1012.0 0.8
01/03:30pm 14.1 9.3 8.9 71 2.6 SW 24 32 13 17 1011.5 1011.5 0.4
01/03:00pm 13.3 8.3 9.7 79 1.8 SW 26 39 14 21 1011.3 1011.3 0.4
01/02:30pm 13.1 9.4 9.5 79 1.8 SW 19 24 10 13 1011.2 1011.2 0.2
01/02:00pm 12.3 7.7 9.7 84 1.3 WSW 24 26 13 14 1011.2 1011.2 0.2
01/01:30pm 14.4 11.1 9.4 72 2.6 SSW 17 22 9 12 1010.8 1010.8 0.2
01/01:00pm 13.8 9.8 9.0 73 2.4 SW 20 24 11 13 1010.9 1010.9 0.2
01/12:30pm 13.2 9.0 9.8 80 1.7 SSW 22 32 12 17 1011.1 1011.1 0.2
01/12:00pm 11.8 7.3 10.0 89 0.9 S 24 30 13 16 1011.1 1011.1 0.2
01/11:30am 10.6 3.1 9.4 92 0.6 SSW 39 54 21 29 1011.2 1011.2 0.2
01/11:19am 11.2 2.7 8.4 83 1.4 SW 43 50 23 27 1010.9 1010.9 0.0
01/11:15am 12.0 6.1 7.3 73 2.3 WSW 28 57 15 31 1010.8 1010.8 0.0
01/11:00am 14.1 10.7 10.5 79 1.9 WSW 19 26 10 14 1010.6 1010.6 0.0
01/10:30am 13.4 10.8 10.8 84 1.4 WSW 15 20 8 11 1010.8 1010.8 0.0
01/10:00am 12.9 9.9 10.8 87 1.1 SW 17 22 9 12 1011.0 1011.0 0.0
01/09:30am 12.8 10.5 10.5 86 1.2 WSW 13 19 7 10 1010.8 1010.8 0.0
01/09:00am 11.9 9.9 11.4 97 0.3 WNW 13 15 7 8 1010.9 1011.0 3.2
01/08:30am 11.0 9.1 10.4 96 0.3 NW 11 13 6 7 1010.5 1010.6 3.2
01/08:00am 11.2 9.3 10.6 96 0.3 NW 11 13 6 7 1010.3 1010.4 3.2
01/07:30am 11.0 8.3 10.4 96 0.3 WNW 15 19 8 10 1010.2 1010.3 3.2
01/07:00am 11.1 8.1 10.5 96 0.3 WNW 17 20 9 11 1009.7 1009.8 3.2
01/06:30am 11.4 8.4 10.8 96 0.3 WNW 17 20 9 11 1009.4 1009.5 3.2
01/06:00am 11.4 8.4 10.8 96 0.3 NW 17 22 9 12 1009.0 1009.1 3.2
01/05:30am 11.3 8.7 10.7 96 0.3 NNW 15 20 8 11 1008.8 1008.9 3.2
01/05:00am 11.2 7.8 10.6 96 0.3 NNW 19 26 10 14 1009.0 1009.1 3.2
01/04:30am 11.1 8.1 10.5 96 0.3 NNW 17 24 9 13 1008.8 1008.9 3.2
01/04:00am 11.4 8.8 10.6 95 0.4 NNW 15 19 8 10 1008.2 1008.3 3.0
01/03:30am 11.6 9.4 10.8 95 0.4 NNW 13 20 7 11 1008.6 1008.7 2.8
01/03:00am 11.8 8.5 10.9 94 0.5 NW 19 22 10 12 1009.1 1009.2 2.2
01/02:30am 12.3 9.9 11.5 95 0.4 NW 15 22 8 12 1009.3 1009.4 1.0
01/02:00am 12.6 10.3 11.8 95 0.4 WNW 15 20 8 11 1009.3 1009.4 0.4
01/01:30am 12.5 10.9 11.4 93 0.6 WSW 11 15 6 8 1009.1 1009.2 0.4
01/01:00am 12.5 10.7 10.9 90 0.8 WNW 11 17 6 9 1009.3 1009.4 0.0
01/12:30am 12.8 10.5 10.3 85 1.3 WNW 13 20 7 11 1009.0 1009.1 0.0
01/12:00am 12.8 10.2 9.3 79 1.8 W 13 15 7 8 1008.7 1008.8 0.0
 
Date/Time
CST
Temp
°C
App
Temp
°C
Dew
Point
Rel
Hum
%
Delta-T
°C
Wind Press
QNH
hPa
Press
MSL
hPa
Rain
since 9 am
mm
Dir
 
Spd
km/h
Gust
km/h
Spd
kts
Gust
kts
31/11:30pm 13.0 10.0 9.1 77 2.0 WNW 15 19 8 10 1008.8 1008.9 0.0
31/11:00pm 13.0 11.1 8.9 76 2.1 NW 9 13 5 7 1008.4 1008.5 0.0
31/10:30pm 13.8 10.9 8.2 69 2.8 NNW 13 19 7 10 1008.9 1009.0 0.0
31/10:00pm 14.2 11.3 8.2 67 3.0 NNW 13 17 7 9 1009.1 1009.2 0.0
31/09:30pm 13.2 11.2 8.7 74 2.3 NNE 9 13 5 7 1009.1 1009.2 0.0
31/09:00pm 12.7 11.2 8.6 76 2.1 N 6 7 3 4 1009.3 1009.4 0.0
31/08:30pm 13.5 9.8 8.1 70 2.7 W 17 22 9 12 1009.8 1009.9 0.0
31/08:00pm 15.3 12.4 6.3 55 4.4 N 11 13 6 7 1009.5 1009.6 0.0
31/07:30pm 13.6 11.5 8.4 71 2.6 N 9 13 5 7 1009.7 1009.8 0.0
31/07:00pm 14.6 13.1 9.0 69 2.9 N 7 11 4 6 1010.1 1010.2 0.0
31/06:30pm 14.2 12.6 8.8 70 2.7 WNW 7 9 4 5 1010.0 1010.1 0.0
31/06:00pm 16.8 14.1 5.4 47 5.5 NW 9 11 5 6 1009.9 1010.0 0.0
31/05:30pm 17.7 13.4 5.3 44 6.0 N 17 19 9 10 1009.0 1009.1 0.0
31/05:00pm 18.5 14.3 3.6 37 7.0 N 15 20 8 11 1009.1 1009.2 0.0
31/04:30pm 18.5 14.8 4.7 40 6.6 N 13 17 7 9 1009.6 1009.7 0.0
31/04:00pm 18.8 15.3 5.3 41 6.6 NNW 13 20 7 11 1010.2 1010.3 0.0
31/03:30pm 18.9 14.4 6.1 43 6.4 N 19 24 10 13 1010.6 1010.7 0.0
31/03:00pm 19.6 14.8 5.6 40 6.9 NW 20 30 11 16 1011.0 1011.1 0.0
31/02:30pm 20.9 16.1 5.7 37 7.6 NNW 20 28 11 15 1010.9 1011.0 0.0
31/02:00pm 20.6 15.1 5.8 38 7.4 NNW 24 37 13 20 1011.2 1011.3 0.0
31/01:30pm 20.8 16.0 5.6 37 7.6 NNW 20 28 11 15 1011.5 1011.6 0.0
31/01:00pm 19.9 15.5 7.3 44 6.4 NNW 20 28 11 15 1012.2 1012.3 0.0
31/12:30pm 20.4 15.1 6.7 41 6.9 NNW 24 33 13 18 1012.7 1012.8 0.0
31/12:00pm 20.2 15.8 6.5 41 6.9 NNW 19 26 10 14 1013.2 1013.3 0.0
31/11:30am 19.3 14.8 6.1 42 6.6 N 19 30 10 16 1013.6 1013.7 0.0
31/11:00am 19.1 14.4 6.2 43 6.4 N 20 30 11 16 1014.1 1014.2 0.0
31/10:30am 19.4 14.8 6.5 43 6.5 N 20 28 11 15 1014.3 1014.4 0.0
31/10:00am 17.3 12.8 6.2 48 5.5 N 19 28 10 15 1014.5 1014.6 0.0
31/09:30am 16.4 12.5 7.1 54 4.6 N 17 26 9 14 1014.9 1015.0 0.0
31/09:00am 13.3 9.0 6.9 65 3.1 NNE 19 24 10 13 1015.2 1015.3 0.0
31/08:30am 12.4 8.4 6.5 67 2.8 NNE 17 20 9 11 1015.7 1015.8 0.0
31/08:00am 11.8 7.0 5.7 66 2.8 NNE 20 26 11 14 1015.7 1015.8 0.0
31/07:30am 11.2 6.5 5.3 67 2.7 NNE 19 24 10 13 1015.6 1015.7 0.0
31/07:00am 11.1 6.4 5.2 67 2.7 N 19 28 10 15 1015.7 1015.8 0.0
31/06:30am 10.6 5.9 5.2 69 2.5 NNE 19 28 10 15 1015.7 1015.8 0.0
31/06:00am 10.7 6.8 5.3 69 2.5 N 15 20 8 11 1015.6 1015.7 0.0
31/05:30am 11.3 5.3 5.2 66 2.8 NNE 26 33 14 18 1015.4 1015.5 0.0
31/05:00am 11.8 5.8 5.4 65 3.0 NNE 26 37 14 20 1015.3 1015.4 0.0
31/04:30am 12.2 6.5 5.1 62 3.3 NNE 24 33 13 18 1015.7 1015.8 0.0
31/04:00am 11.8 7.5 5.4 65 3.0 N 17 24 9 13 1015.8 1015.9 0.0
31/03:30am 11.8 8.0 5.7 66 2.8 N 15 20 8 11 1016.1 1016.2 0.0
31/03:00am 11.6 7.1 5.9 68 2.7 NNE 19 24 10 13 1016.4 1016.5 0.0
31/02:30am 11.6 6.8 5.7 67 2.7 NNE 20 28 11 15 1016.6 1016.7 0.0
31/02:00am 12.3 6.8 6.1 66 2.9 NNE 24 35 13 19 1016.5 1016.6 0.0
31/01:30am 11.5 8.1 6.0 69 2.6 NNE 13 22 7 12 1016.9 1016.9 0.0
31/01:00am 11.8 8.5 6.5 70 2.5 NNE 13 19 7 10 1017.4 1017.4 0.0
31/12:30am 7.1 4.4 5.6 90 0.7 NNE 9 15 5 8 1017.6 1017.6 0.0
31/12:00am 7.1 5.7 5.3 88 0.8 NNE 2 7 1 4 1018.0 1018.0 0.0
 
Date/Time
CST
Temp
°C
App
Temp
°C
Dew
Point
Rel
Hum
%
Delta-T
°C
Wind Press
QNH
hPa
Press
MSL
hPa
Rain
since 9 am
mm
Dir
 
Spd
km/h
Gust
km/h
Spd
kts
Gust
kts
30/11:30pm 9.5 7.2 5.5 76 1.8 N 7 9 4 5 1018.0 1018.0 0.0
30/11:00pm 11.9 10.2 7.6 75 2.1 N 6 7 3 4 1018.3 1018.3 0.0
30/10:30pm 13.4 10.4 7.8 69 2.8 NNE 13 17 7 9 1018.6 1018.6 0.0
30/10:00pm 12.9 9.3 8.4 74 2.2 NE 17 20 9 11 1018.9 1018.9 0.0
30/09:30pm 13.0 9.4 8.5 74 2.2 NE 17 19 9 10 1019.2 1019.2 0.0
30/09:00pm 12.5 9.3 8.4 76 2.0 ENE 15 17 8 9 1019.4 1019.4 0.0
30/08:30pm 13.0 10.1 8.3 73 2.3 ENE 13 15 7 8 1019.4 1019.4 0.0
30/08:00pm 12.5 10.0 8.2 75 2.1 ENE 11 13 6 7 1019.5 1019.5 0.0
30/07:30pm 13.1 11.6 9.0 76 2.1 E 7 7 4 4 1019.7 1019.7 0.0
30/07:00pm 13.5 12.2 9.2 75 2.2 E 6 7 3 4 1019.8 1019.8 0.0
30/06:30pm 13.0 11.6 8.7 75 2.2 E 6 9 3 5 1019.7 1019.7 0.0
30/06:00pm 14.3 14.1 9.1 71 2.6 CALM 0 6 0 3 1019.6 1019.6 0.0
30/05:30pm 18.2 18.4 10.6 61 4.1 CALM 0 0 0 0 1019.6 1019.6 0.0
30/05:00pm 20.5 20.0 10.6 53 5.4 NW 4 6 2 3 1019.6 1019.6 0.0
30/04:30pm 21.2 20.0 10.4 50 5.9 WNW 7 9 4 5 1019.7 1019.7 0.0
30/04:00pm 21.6 19.9 9.8 47 6.4 NW 9 11 5 6 1019.7 1019.7 0.0
30/03:30pm 22.0 19.9 8.2 41 7.2 WNW 9 15 5 8 1020.0 1020.0 0.0
30/03:00pm 22.1 19.5 9.3 44 6.9 NW 13 19 7 10 1020.1 1020.1 0.0
30/02:30pm 22.1 19.9 9.3 44 6.9 NW 11 19 6 10 1020.3 1020.3 0.0
30/02:00pm 21.6 19.0 9.5 46 6.5 NW 13 19 7 10 1020.9 1020.9 0.0
30/01:30pm 21.4 20.0 10.9 51 5.8 NW 9 20 5 11 1021.1 1021.1 0.0
30/01:00pm 21.0 19.2 10.8 52 5.6 NNW 11 19 6 10 1021.5 1021.5 0.0
30/12:30pm 20.3 18.2 9.8 51 5.6 NNW 11 17 6 9 1022.0 1022.0 0.0
30/12:00pm 20.0 18.8 11.7 59 4.6 N 9 13 5 7 1022.5 1022.5 0.0
30/11:30am 18.9 16.8 9.7 55 4.9 N 11 19 6 10 1023.1 1023.1 0.0
30/11:00am 17.6 15.1 9.8 60 4.1 N 13 17 7 9 1023.4 1023.4 0.0
30/10:30am 16.6 13.2 9.3 62 3.8 N 17 20 9 11 1023.8 1023.9 0.0
30/10:00am 15.2 11.8 9.3 68 3.0 N 17 20 9 11 1023.9 1024.0 0.0
30/09:30am 13.9 11.1 8.7 71 2.6 NNE 13 19 7 10 1024.3 1024.4 0.0
30/09:00am 12.5 8.5 8.4 76 2.0 NNE 19 24 10 13 1024.2 1024.3 0.0
30/08:30am 11.1 7.2 7.2 77 1.9 NNE 17 20 9 11 1024.4 1024.5 0.0
30/08:00am 10.2 6.6 6.7 79 1.6 NNE 15 22 8 12 1024.4 1024.5 0.0
30/07:30am 9.4 5.4 6.5 82 1.3 NNE 17 24 9 13 1024.5 1024.6 0.0
30/07:00am 8.6 3.9 6.1 84 1.1 NNE 20 28 11 15 1024.5 1024.6 0.0
30/06:30am 8.1 2.9 5.7 85 1.1 NE 22 28 12 15 1024.4 1024.5 0.0

Other Formats:

Comma delimited format used in spreadsheet applications
http://www.bom.gov.au/fwo/IDS60801/IDS60801.94820.axf

JavaScript Object Notation format (JSON) in row-major order
http://www.bom.gov.au/fwo/IDS60801/IDS60801.94820.json